INFORMACIÓN METAR y TAF
METAR FOR LEXJ
ADDS - METARS form results

(1922 UTC 15 February 2019)
Data provider http://aviationweather.gov/metar/data/
 
METAR text: LEXJ 151900Z VRB02KT CAVOK 12/04 Q1026
Conditions at: LEXJ (SANTANDER/PARAYA, ES) observed 1900 UTC 15 February 2019
Temperature: 12.0°C (54°F)
Dewpoint: 4.0°C (39°F) [RH = 58%]
Pressure (altimeter): 30.30 inches Hg (1026.0 mb)
Winds: variable direction winds at 2 MPH (2 knots; 1.0 m/s)
Visibility: 6 or more miles (10+ km)
Ceiling: ceiling and visibility are OK
Clouds: unknown
Weather: no significant weather observed at this time

METAR text: LEXJ 151830Z 28004KT CAVOK 12/05 Q1026
Conditions at: LEXJ (SANTANDER/PARAYA, ES) observed 1830 UTC 15 February 2019
Temperature: 12.0°C (54°F)
Dewpoint: 5.0°C (41°F) [RH = 62%]
Pressure (altimeter): 30.30 inches Hg (1026.0 mb)
Winds: from the W (280 degrees) at 5 MPH (4 knots; 2.1 m/s)
Visibility: 6 or more miles (10+ km)
Ceiling: ceiling and visibility are OK
Clouds: unknown
Weather: no significant weather observed at this time

Forecast for: LEXJ (SANTANDER/PARAYA, ES)
Text: TAF LEXJ 151400Z 1515/1615 20009KT CAVOK TX20/1613Z TN07/1603Z
Forecast period: 1500 UTC 15 February 2019 to 1500 UTC 16 February 2019
Forecast type: FROM: standard forecast or significant change
Winds: from the SSW (200 degrees) at 10 MPH (9 knots; 4.6 m/s)
Visibility: 6 or more miles 10+ km)
Ceiling: unknown
Clouds: missing
Weather: no significant weather forecast for this period
Text: PROB30
Forecast period: 1500 to 1800 UTC 15 February 2019
Forecast type: TEMPORARY: The following changes expected for less than half the time period
Winds: from the NNE (20 degrees) at 12 MPH (10 knots; 5.1 m/s)
Visibility: missing
Ceiling: unknown
Clouds: missing
Weather: no significant weather forecast for this period

 MAPA DE AEROPUERTO

 INFORMACIÓN DE PISTA
Pista 11 Longitud 7612 ft Ancho 148 ft
Elevación 11 ft Umbral desplazado 0 ft Rumbo de pista 110
Pista 29 Longitud 7612 ft Ancho 148 ft
Elevación 12 ft Umbral desplazado 0 ft Rumbo de pista 290

 FRECUANCIAS DEL AEROPUERTO
Tipo APP Nombre APP Frecuencia 118.375 MHZ
Tipo GND Nombre GND Frecuencia 121.7 MHZ
Tipo TWR Nombre TWR Frecuencia 118.1 MHZ

 RADIO AYUDAS DEL AEROPUERTO
Tipo NDB Nombre Santander Frecuencia 416 KHZ
Tipo VOR-DME Nombre Santander Frecuencia 115300 KHZ



              


PayPal

©2019 Oasis Virtual Airlines
Simulando desde el 2013

Oasis Líneas Aéreas Virtuales no está relacionada con ninguna compañía real.
Se trata de un entorno virtual de simulación aérea, sin ánimo de lucro.


Visitas:

VAM v2.6.2 [MOD.]